createdAt,value
2023-05-06T00:00:12.767Z,25.30664
2023-05-06T00:00:42.765Z,25.92285
2023-05-06T00:01:12.766Z,26.10645
2023-05-06T00:01:42.760Z,24.91113
2023-05-06T00:02:12.764Z,23.96973
2023-05-06T00:02:42.878Z,23.80469
2023-05-06T00:03:12.883Z,24.19336
2023-05-06T00:03:42.910Z,22.27148
2023-05-06T00:04:12.857Z,22.39551
2023-05-06T00:04:42.802Z,24.37695
2023-05-06T00:05:12.945Z,25.39551
2023-05-06T00:05:42.762Z,25.26367
2023-05-06T00:06:12.766Z,25.09863
2023-05-06T00:06:42.765Z,24.43555
2023-05-06T00:07:12.778Z,25.23145
2023-05-06T00:07:42.763Z,25.98438
2023-05-06T00:08:12.763Z,25.79688
2023-05-06T00:08:42.778Z,26.15039
2023-05-06T00:09:12.783Z,27.16797
2023-05-06T00:09:42.766Z,27.00195
2023-05-06T00:10:12.766Z,26.47168
2023-05-06T00:10:42.771Z,25.84863
2023-05-06T00:11:12.762Z,25.86816
2023-05-06T00:11:42.771Z,27.05957
2023-05-06T00:12:12.775Z,27.04492
2023-05-06T00:12:42.774Z,27.73828
2023-05-06T00:13:12.825Z,26.03613
2023-05-06T00:13:42.764Z,26.87695
2023-05-06T00:14:12.767Z,27.1748
2023-05-06T00:14:42.765Z,27.16602
2023-05-06T00:15:12.804Z,27.10059
2023-05-06T00:15:42.773Z,27.09082
2023-05-06T00:16:12.824Z,27.38867
2023-05-06T00:16:42.834Z,27.61914
2023-05-06T00:17:12.770Z,28.30762
2023-05-06T00:17:42.814Z,27.77148
2023-05-06T00:18:12.772Z,27.71289
2023-05-06T00:18:42.763Z,24.75195
2023-05-06T00:19:12.772Z,26.35352
2023-05-06T00:19:42.763Z,28.38672
2023-05-06T00:20:12.767Z,27.65918
2023-05-06T00:20:42.770Z,27.50488
2023-05-06T00:21:12.765Z,27.05469
2023-05-06T00:21:42.772Z,27.31055
2023-05-06T00:22:12.773Z,27.6084
2023-05-06T00:22:42.767Z,27.78516
2023-05-06T00:23:12.768Z,25.35645
2023-05-06T00:23:42.771Z,24.17578
2023-05-06T00:24:12.774Z,25.04004
2023-05-06T00:24:42.773Z,26.89844
2023-05-06T00:25:12.768Z,27.64063
2023-05-06T00:25:42.768Z,27.50977
2023-05-06T00:26:12.774Z,27.69727
2023-05-06T00:26:42.769Z,28.0957
2023-05-06T00:27:12.774Z,27.85156
2023-05-06T00:27:42.764Z,27.05664
2023-05-06T00:28:12.769Z,27.89453
2023-05-06T00:28:42.769Z,26.45703
2023-05-06T00:29:12.779Z,26.13672
2023-05-06T00:29:42.774Z,26.44727
2023-05-06T00:30:12.775Z,26.74609
2023-05-06T00:30:42.771Z,26.90137
2023-05-06T00:31:12.768Z,27.13281
2023-05-06T00:31:42.836Z,27.07715
2023-05-06T00:32:12.904Z,26.79004
2023-05-06T00:32:42.812Z,27.6416
2023-05-06T00:33:12.772Z,27.81836
2023-05-06T00:33:42.770Z,28.00684
2023-05-06T00:34:12.769Z,27.41016
2023-05-06T00:34:42.771Z,27.78418
2023-05-06T00:35:12.773Z,27.91504
2023-05-06T00:35:42.769Z,28.31152
2023-05-06T00:36:12.804Z,27.95801
2023-05-06T00:36:42.805Z,27.98047
2023-05-06T00:37:12.780Z,28.16797
2023-05-06T00:37:42.775Z,26.25586
2023-05-06T00:38:12.791Z,26.43262
2023-05-06T00:38:42.782Z,27.63379
2023-05-06T00:39:12.785Z,27.35547
2023-05-06T00:39:42.776Z,27.28809
2023-05-06T00:40:12.773Z,27.4873
2023-05-06T00:40:42.776Z,27.29785
2023-05-06T00:41:12.789Z,27.46387
2023-05-06T00:41:42.775Z,28.0918
2023-05-06T00:42:12.779Z,28.4082
2023-05-06T00:42:42.774Z,28.47266
2023-05-06T00:43:12.781Z,28.40527
2023-05-06T00:43:42.783Z,27.68555
2023-05-06T00:44:12.776Z,27.88281
2023-05-06T00:44:42.783Z,28.65723
2023-05-06T00:45:12.780Z,29.76074
2023-05-06T00:45:42.796Z,30.05078
2023-05-06T00:46:12.789Z,28.12305
2023-05-06T00:46:42.774Z,27.96973
2023-05-06T00:47:12.771Z,27.25293
2023-05-06T00:47:42.887Z,26.9541
2023-05-06T00:48:12.871Z,27.33984
2023-05-06T00:48:42.776Z,27.00781
2023-05-06T00:49:12.774Z,26.875
2023-05-06T00:49:42.776Z,26.57813
2023-05-06T00:50:12.777Z,26.89941
2023-05-06T00:50:42.792Z,26.85645
2023-05-06T00:51:12.776Z,26.03906
2023-05-06T00:51:42.780Z,26.67871
2023-05-06T00:52:12.777Z,26.83203
2023-05-06T00:52:42.782Z,26.8877
2023-05-06T00:53:12.779Z,26.98633
2023-05-06T00:53:42.775Z,27.2832
2023-05-06T00:54:12.774Z,26.99609
2023-05-06T00:54:42.778Z,26.47656
2023-05-06T00:55:12.782Z,27.05078
2023-05-06T00:55:42.774Z,27.18262
2023-05-06T00:56:12.774Z,27.79785
2023-05-06T00:56:42.776Z,28.31152
2023-05-06T00:57:12.778Z,27.51563
2023-05-06T00:57:42.785Z,27.96777
2023-05-06T00:58:12.786Z,28.23047
2023-05-06T00:58:42.798Z,29.27441
2023-05-06T00:59:12.779Z,28.96094
2023-05-06T00:59:42.781Z,28.80273
2023-05-06T01:00:12.782Z,29.52734
2023-05-06T01:00:42.794Z,28.7998
2023-05-06T01:01:12.836Z,29.13281
2023-05-06T01:01:42.843Z,28.49512
2023-05-06T01:02:12.806Z,28.15527
2023-05-06T01:02:47.428Z,28.3125
2023-05-06T01:03:14.208Z,28.77539
2023-05-06T01:03:42.899Z,28.19043
2023-05-06T01:04:12.839Z,28.20117
2023-05-06T01:04:42.800Z,26.20313
2023-05-06T01:05:12.849Z,26.10059
2023-05-06T01:05:42.785Z,26
2023-05-06T01:06:12.784Z,25.90137
2023-05-06T01:06:42.786Z,25.49609
2023-05-06T01:07:12.787Z,25.67383
2023-05-06T01:07:42.783Z,25.8418
2023-05-06T01:08:12.783Z,25.83398
2023-05-06T01:08:42.792Z,25.10352
2023-05-06T01:09:12.782Z,25.43457
2023-05-06T01:09:42.800Z,26.10449
2023-05-06T01:10:12.783Z,25.8291
2023-05-06T01:10:42.788Z,26.31836
2023-05-06T01:11:14.014Z,26.08008
2023-05-06T01:11:43.835Z,25.14063
2023-05-06T01:12:12.783Z,24.97656
2023-05-06T01:12:42.848Z,24.83594
2023-05-06T01:13:12.834Z,24.98242
2023-05-06T01:13:42.821Z,23.78906
2023-05-06T01:14:12.791Z,24.35547
2023-05-06T01:14:42.791Z,24.54492
2023-05-06T01:15:12.793Z,24.28418
2023-05-06T01:15:42.787Z,24.33008
2023-05-06T01:16:12.790Z,24.38867
2023-05-06T01:16:42.823Z,24.24121
2023-05-06T01:17:12.866Z,24.32617
2023-05-06T01:17:42.816Z,24.48047
2023-05-06T01:18:12.793Z,24.52344
2023-05-06T01:18:42.826Z,24.47852
2023-05-06T01:19:12.788Z,24.43457
2023-05-06T01:19:42.785Z,24.23633
2023-05-06T01:20:12.821Z,24.31641
2023-05-06T01:20:42.789Z,24.41797
2023-05-06T01:21:12.809Z,24.53125
2023-05-06T01:21:42.790Z,24.26758
2023-05-06T01:22:12.791Z,24.32422
2023-05-06T01:22:42.793Z,24.64648
2023-05-06T01:23:12.788Z,24.77051
2023-05-06T01:23:42.792Z,24.91504
2023-05-06T01:24:12.801Z,25.2373
2023-05-06T01:24:42.791Z,25.22656
2023-05-06T01:25:12.792Z,25.36035
2023-05-06T01:25:42.798Z,24.68652
2023-05-06T01:26:12.792Z,24.57715
2023-05-06T01:26:42.800Z,25.00879
2023-05-06T01:27:12.794Z,25.09766
2023-05-06T01:27:42.797Z,25.20898
2023-05-06T01:28:12.796Z,25.35156
2023-05-06T01:28:42.796Z,25.32715
2023-05-06T01:29:12.799Z,24.35352
2023-05-06T01:29:42.800Z,24.39746
2023-05-06T01:30:12.799Z,25.17188
2023-05-06T01:30:42.819Z,26.36621
2023-05-06T01:31:12.821Z,25.98047
2023-05-06T01:31:42.792Z,26.19141
2023-05-06T01:32:12.794Z,26.47754
2023-05-06T01:32:42.818Z,26.42188
2023-05-06T01:33:12.819Z,25.70313
2023-05-06T01:33:42.792Z,25.69238
2023-05-06T01:34:12.803Z,25.19434
2023-05-06T01:34:42.792Z,24.96289
2023-05-06T01:35:12.792Z,25.11719
2023-05-06T01:35:42.796Z,24.90723
2023-05-06T01:36:12.793Z,24.76367
2023-05-06T01:36:42.801Z,25.03906
2023-05-06T01:37:12.813Z,26.75195
2023-05-06T01:37:42.799Z,26.5625
2023-05-06T01:38:12.810Z,26.80566
2023-05-06T01:38:42.798Z,26.62891
2023-05-06T01:39:12.796Z,26.68359
2023-05-06T01:39:42.800Z,24.15137
2023-05-06T01:40:12.827Z,23.89746
2023-05-06T01:40:42.807Z,24.81641
2023-05-06T01:41:12.794Z,25.58008
2023-05-06T01:41:42.805Z,24.67578
2023-05-06T01:42:12.801Z,24.87598
2023-05-06T01:42:42.796Z,26.71289
2023-05-06T01:43:12.795Z,26.84668
2023-05-06T01:43:42.804Z,26.94629
2023-05-06T01:44:12.808Z,27.14648
2023-05-06T01:44:42.807Z,26.99121
2023-05-06T01:45:12.802Z,26.99121
2023-05-06T01:45:42.794Z,26.69238
2023-05-06T01:46:12.819Z,27.37598
2023-05-06T01:46:42.829Z,26.10352
2023-05-06T01:47:12.799Z,26.57813
2023-05-06T01:47:42.829Z,27.05273
2023-05-06T01:48:12.796Z,28.1543
2023-05-06T01:48:42.811Z,26.48242
2023-05-06T01:49:12.797Z,25.78125
2023-05-06T01:49:42.798Z,26.2002
2023-05-06T01:50:12.801Z,26.86328
2023-05-06T01:50:42.797Z,27.27246
2023-05-06T01:51:12.799Z,27.19531
2023-05-06T01:51:42.796Z,26.77637
2023-05-06T01:52:12.802Z,27.24023
2023-05-06T01:52:42.800Z,26.42383
2023-05-06T01:53:12.799Z,25.98438
2023-05-06T01:53:42.796Z,27.81836
2023-05-06T01:54:12.832Z,27.70898
2023-05-06T01:54:42.798Z,27.7666
2023-05-06T01:55:12.807Z,28.58496
2023-05-06T01:55:42.800Z,27.36133
2023-05-06T01:56:12.804Z,27.24121
2023-05-06T01:56:42.799Z,26.3916
2023-05-06T01:57:12.800Z,26.34863
2023-05-06T01:57:42.802Z,26.76855
2023-05-06T01:58:12.803Z,26.25879
2023-05-06T01:58:42.816Z,25.31934
2023-05-06T01:59:12.814Z,24.99707
2023-05-06T01:59:42.823Z,25.04102
2023-05-06T02:00:12.822Z,25.15234
2023-05-06T02:00:42.827Z,25.20801
2023-05-06T02:01:12.832Z,25.34082
2023-05-06T02:01:42.887Z,25.44043
2023-05-06T02:02:12.828Z,26.22559
2023-05-06T02:02:43.008Z,25.42969
2023-05-06T02:03:12.877Z,25.32813
2023-05-06T02:03:42.920Z,25.33691
2023-05-06T02:04:12.809Z,25.41406
2023-05-06T02:04:42.842Z,25.38086
2023-05-06T02:05:12.800Z,25.6582
2023-05-06T02:05:42.810Z,25.65918
2023-05-06T02:06:12.801Z,26.40039
2023-05-06T02:06:42.820Z,26.97559
2023-05-06T02:07:12.808Z,26.87695
2023-05-06T02:07:42.805Z,26.92188
2023-05-06T02:08:12.833Z,27.39648
2023-05-06T02:08:42.797Z,27.05469
2023-05-06T02:09:12.805Z,27.20996
2023-05-06T02:09:42.805Z,25.41992
2023-05-06T02:10:12.803Z,25.56055
2023-05-06T02:10:42.797Z,25.58301
2023-05-06T02:11:12.801Z,25.87012
2023-05-06T02:11:42.794Z,25.87012
2023-05-06T02:12:12.806Z,25.41699
2023-05-06T02:12:42.834Z,25.56641
2023-05-06T02:13:12.829Z,25.80664
2023-05-06T02:13:42.800Z,26.02344
2023-05-06T02:14:12.804Z,26.02148
2023-05-06T02:14:42.804Z,25.91113
2023-05-06T02:15:12.801Z,26.17676
2023-05-06T02:15:42.822Z,25.53809
2023-05-06T02:16:12.858Z,25.53906
2023-05-06T02:16:42.822Z,25.76172
2023-05-06T02:17:12.799Z,25.88477
2023-05-06T02:17:42.820Z,25.96387
2023-05-06T02:18:12.796Z,26.11035
2023-05-06T02:18:42.810Z,26.21191
2023-05-06T02:19:12.816Z,26.39063
2023-05-06T02:19:42.807Z,26.83398
2023-05-06T02:20:12.801Z,25.66309
2023-05-06T02:20:42.805Z,24.90039
2023-05-06T02:21:12.797Z,24.88965
2023-05-06T02:21:42.802Z,25.76465
2023-05-06T02:22:12.799Z,26.83887
2023-05-06T02:22:42.799Z,26.29785
2023-05-06T02:23:12.799Z,27.0625
2023-05-06T02:23:42.803Z,26.42285
2023-05-06T02:24:12.802Z,26.5127
2023-05-06T02:24:42.805Z,26.22754
2023-05-06T02:25:12.802Z,27.10254
2023-05-06T02:25:42.801Z,26.81641
2023-05-06T02:26:12.799Z,26.78613
2023-05-06T02:26:42.801Z,27.3291
2023-05-06T02:27:12.804Z,26.52246
2023-05-06T02:27:42.800Z,26.97461
2023-05-06T02:28:12.811Z,26.6416
2023-05-06T02:28:42.812Z,25.64648
2023-05-06T02:29:12.810Z,25.42578
2023-05-06T02:29:42.824Z,25.52539
2023-05-06T02:30:12.807Z,25.37109
2023-05-06T02:30:42.807Z,25.44922
2023-05-06T02:31:12.831Z,26.9541
2023-05-06T02:31:42.843Z,27.04395
2023-05-06T02:32:12.804Z,26.73242
2023-05-06T02:32:42.988Z,25.74707
2023-05-06T02:33:12.805Z,25.73535
2023-05-06T02:33:42.805Z,25.84668
2023-05-06T02:34:12.804Z,25.78125
2023-05-06T02:34:42.859Z,25.57324
2023-05-06T02:35:12.805Z,25.55273
2023-05-06T02:35:42.823Z,25.6416
2023-05-06T02:36:12.802Z,25.63184
2023-05-06T02:36:42.823Z,25.53418
2023-05-06T02:37:12.805Z,25.70215
2023-05-06T02:37:42.804Z,25.37109
2023-05-06T02:38:12.807Z,25.61328
2023-05-06T02:38:42.815Z,26.2168
2023-05-06T02:39:12.811Z,26.21387
2023-05-06T02:39:42.823Z,26.24512
2023-05-06T02:40:12.812Z,26.37988
2023-05-06T02:40:42.835Z,26.55859
2023-05-06T02:41:12.806Z,26.0625
2023-05-06T02:41:42.801Z,26.39355
2023-05-06T02:42:12.836Z,26.22754
2023-05-06T02:42:42.872Z,26.40234
2023-05-06T02:43:12.824Z,26.33594
2023-05-06T02:43:42.848Z,26.52148
2023-05-06T02:44:12.809Z,26.59766
2023-05-06T02:44:42.867Z,26.37695
2023-05-06T02:45:12.816Z,26.28906
2023-05-06T02:45:42.918Z,25.99219
2023-05-06T02:46:12.898Z,26.27148
2023-05-06T02:46:42.817Z,26.30664
2023-05-06T02:47:12.820Z,26.28711
2023-05-06T02:47:42.910Z,26.38672
2023-05-06T02:48:12.812Z,26.44336
2023-05-06T02:48:42.856Z,26.72656
2023-05-06T02:49:12.810Z,27.09082
2023-05-06T02:49:42.834Z,27.06934
2023-05-06T02:50:12.810Z,26.6582
2023-05-06T02:50:42.805Z,27.38281
2023-05-06T02:51:12.816Z,27.32617
2023-05-06T02:51:42.901Z,27.25977
2023-05-06T02:52:12.806Z,27.56934
2023-05-06T02:52:42.928Z,27.59961
2023-05-06T02:53:12.807Z,27.06641
2023-05-06T02:53:42.886Z,27.20996
2023-05-06T02:54:12.813Z,27.5791
2023-05-06T02:54:42.957Z,27.9834
2023-05-06T02:55:12.817Z,27.81738
2023-05-06T02:55:42.870Z,27.7002
2023-05-06T02:56:12.818Z,27.91309
2023-05-06T02:56:42.820Z,27.7627
2023-05-06T02:57:12.807Z,28.23242
2023-05-06T02:57:42.916Z,28.04004
2023-05-06T02:58:12.816Z,27.37598
2023-05-06T02:58:42.900Z,26.51172
2023-05-06T02:59:12.812Z,26.60059
2023-05-06T02:59:42.816Z,26.77441
2023-05-06T03:00:12.858Z,26.90332
2023-05-06T03:00:42.813Z,27.28906
2023-05-06T03:01:12.845Z,27.23047
2023-05-06T03:01:42.896Z,27.26172
2023-05-06T03:02:12.813Z,27.51465
2023-05-06T03:02:42.818Z,27.77441
2023-05-06T03:03:12.837Z,27.97168
2023-05-06T03:03:42.811Z,27.59863
2023-05-06T03:04:12.858Z,27.50488
2023-05-06T03:04:42.810Z,27.42285
2023-05-06T03:05:12.811Z,26.92676
2023-05-06T03:05:42.821Z,26.79785
2023-05-06T03:06:12.816Z,26.96875
2023-05-06T03:06:42.817Z,27.05957
2023-05-06T03:07:12.831Z,26.86426
2023-05-06T03:07:42.814Z,26.84766
2023-05-06T03:08:12.809Z,27.04297
2023-05-06T03:08:42.810Z,26.82324
2023-05-06T03:09:12.834Z,27.3252
2023-05-06T03:09:42.835Z,26.78906
2023-05-06T03:10:12.844Z,26.34082
2023-05-06T03:10:42.808Z,26.37988
2023-05-06T03:11:12.812Z,26.9834
2023-05-06T03:11:42.827Z,26.80176
2023-05-06T03:12:12.814Z,27.18262
2023-05-06T03:12:42.852Z,27.74805
2023-05-06T03:13:12.866Z,27.74121
2023-05-06T03:13:42.816Z,27.79102
2023-05-06T03:14:12.820Z,27.12305
2023-05-06T03:14:42.817Z,26.8418
2023-05-06T03:15:13.082Z,26.50684
2023-05-06T03:15:42.814Z,26.31641
2023-05-06T03:16:12.823Z,26.02344
2023-05-06T03:16:42.847Z,25.7207
2023-05-06T03:17:12.810Z,25.49805
2023-05-06T03:17:42.862Z,25.32129
2023-05-06T03:18:12.816Z,25.42285
2023-05-06T03:18:42.823Z,25.3916
2023-05-06T03:19:12.834Z,25.08105
2023-05-06T03:19:42.820Z,24.38965
2023-05-06T03:20:12.812Z,24.71289
2023-05-06T03:20:42.817Z,24.43652
2023-05-06T03:21:12.984Z,24.41504
2023-05-06T03:21:42.837Z,23.87402
2023-05-06T03:22:12.821Z,24.19727
2023-05-06T03:22:42.816Z,24.23145
2023-05-06T03:23:12.815Z,24.10254
2023-05-06T03:23:42.811Z,23.99707
2023-05-06T03:24:12.815Z,23.81543
2023-05-06T03:24:42.814Z,24.08789
2023-05-06T03:25:12.909Z,24.11719
2023-05-06T03:25:42.831Z,23.83203
2023-05-06T03:26:12.836Z,24.49414
2023-05-06T03:26:42.817Z,24.80859
2023-05-06T03:27:12.818Z,24.77246
2023-05-06T03:27:42.813Z,24.61621
2023-05-06T03:28:12.822Z,24.42871
2023-05-06T03:28:42.816Z,24.90625
2023-05-06T03:29:12.820Z,26.14551
2023-05-06T03:29:42.823Z,26.56348
2023-05-06T03:30:12.815Z,26.25586
2023-05-06T03:30:42.816Z,26.22949
2023-05-06T03:31:12.896Z,26.16992
2023-05-06T03:31:42.834Z,25.75293
2023-05-06T03:32:12.825Z,24.98438
2023-05-06T03:32:42.860Z,24.33984
2023-05-06T03:33:12.823Z,24.38184
2023-05-06T03:33:42.817Z,24.13672
2023-05-06T03:34:12.823Z,23.8584
2023-05-06T03:34:42.819Z,23.94629
2023-05-06T03:35:12.817Z,23.94531
2023-05-06T03:35:42.828Z,23.6543
2023-05-06T03:36:12.817Z,23.89746
2023-05-06T03:36:42.818Z,23.06348
2023-05-06T03:37:12.829Z,23.09473
2023-05-06T03:37:42.820Z,23.03809
2023-05-06T03:38:12.821Z,24.79004
2023-05-06T03:38:42.827Z,24.85449
2023-05-06T03:39:12.819Z,25.15332
2023-05-06T03:39:42.822Z,25.4707
2023-05-06T03:40:12.828Z,25.46289
2023-05-06T03:40:42.824Z,25.27441
2023-05-06T03:41:12.829Z,24.87695
2023-05-06T03:41:42.821Z,25.03516
2023-05-06T03:42:12.819Z,24.29199
2023-05-06T03:42:42.824Z,23.97363
2023-05-06T03:43:12.816Z,24.71582
2023-05-06T03:43:42.824Z,24.70508
2023-05-06T03:44:12.834Z,24.78418
2023-05-06T03:44:42.823Z,24.44336
2023-05-06T03:45:13.017Z,24.45996
2023-05-06T03:45:42.827Z,24.25586
2023-05-06T03:46:12.844Z,24.33301
2023-05-06T03:46:42.851Z,24.98535
2023-05-06T03:47:12.834Z,25.21191
2023-05-06T03:47:42.851Z,25.16602
2023-05-06T03:48:12.851Z,25.35449
2023-05-06T03:48:42.827Z,25.81055
2023-05-06T03:49:12.829Z,25.47949
2023-05-06T03:49:42.817Z,24.67676
2023-05-06T03:50:12.821Z,26.35059
2023-05-06T03:50:42.845Z,26.62598
2023-05-06T03:51:12.827Z,25.93262
2023-05-06T03:51:42.826Z,25.74414
2023-05-06T03:52:12.827Z,25.53418
2023-05-06T03:52:42.848Z,25.49316
2023-05-06T03:53:12.863Z,25.3623
2023-05-06T03:53:42.837Z,24.99902
2023-05-06T03:54:12.845Z,24.93945
2023-05-06T03:54:42.833Z,25.08984
2023-05-06T03:55:12.858Z,24.97168
2023-05-06T03:55:42.831Z,24.50293
2023-05-06T03:56:12.821Z,24.37012
2023-05-06T03:56:42.836Z,24.1709
2023-05-06T03:57:12.823Z,24.3125
2023-05-06T03:57:42.822Z,24.9209
2023-05-06T03:58:12.821Z,24.80957
2023-05-06T03:58:42.824Z,24.60449
2023-05-06T03:59:12.829Z,24.04102
2023-05-06T03:59:42.827Z,24.01172
2023-05-06T04:00:12.871Z,23.76172
2023-05-06T04:00:42.833Z,23.74707
2023-05-06T04:01:12.838Z,23.39941
2023-05-06T04:01:42.873Z,23.2959
2023-05-06T04:02:12.927Z,23.22754
2023-05-06T04:02:42.934Z,22.86133
2023-05-06T04:03:12.896Z,22.89746
2023-05-06T04:03:42.876Z,22.87012
2023-05-06T04:04:12.887Z,22.58594
2023-05-06T04:04:42.825Z,22.50586
2023-05-06T04:05:12.946Z,22.4707
2023-05-06T04:05:42.842Z,21.94336
2023-05-06T04:06:12.825Z,21.34863
2023-05-06T04:06:42.826Z,20.88184
2023-05-06T04:07:12.824Z,20.25977
2023-05-06T04:07:42.825Z,20.41797
2023-05-06T04:08:12.832Z,19.74414
2023-05-06T04:08:42.851Z,20.43262
2023-05-06T04:09:12.825Z,21.33594
2023-05-06T04:09:42.831Z,21.26465
2023-05-06T04:10:12.827Z,20.56348
2023-05-06T04:10:42.833Z,21.37109
2023-05-06T04:11:12.827Z,21.20215
2023-05-06T04:11:42.842Z,21.83887
2023-05-06T04:12:12.836Z,23.26074
2023-05-06T04:12:42.862Z,22.81543
2023-05-06T04:13:12.917Z,22.41406
2023-05-06T04:13:42.833Z,22.22266
2023-05-06T04:14:12.838Z,22.72266
2023-05-06T04:14:42.831Z,22.63086
2023-05-06T04:15:13.056Z,21.73242
2023-05-06T04:15:42.824Z,21.36426
2023-05-06T04:16:12.872Z,20.78613
2023-05-06T04:16:42.858Z,20.20703
2023-05-06T04:17:12.825Z,19.91016
2023-05-06T04:17:42.873Z,19.11133
2023-05-06T04:18:12.831Z,19.21289
2023-05-06T04:18:42.829Z,18.76367
2023-05-06T04:19:12.834Z,18.17188
2023-05-06T04:19:42.829Z,17.44824
2023-05-06T04:20:12.837Z,16.9502
2023-05-06T04:20:42.829Z,16.17773
2023-05-06T04:21:12.833Z,15.75488
2023-05-06T04:21:42.859Z,16.2207
2023-05-06T04:22:12.827Z,16.26465
2023-05-06T04:22:42.833Z,16.11621
2023-05-06T04:23:12.830Z,17.47559
2023-05-06T04:23:42.834Z,18.0166
2023-05-06T04:24:12.830Z,18.41992
2023-05-06T04:24:42.838Z,19.19238
2023-05-06T04:25:13.006Z,20.0918
2023-05-06T04:25:42.832Z,19.90723
2023-05-06T04:26:12.828Z,19.97754
2023-05-06T04:26:42.828Z,20.11328
2023-05-06T04:27:12.837Z,19.8916
2023-05-06T04:27:42.830Z,19.65527
2023-05-06T04:28:12.832Z,18.41992
2023-05-06T04:28:42.830Z,17.14355
2023-05-06T04:29:12.837Z,16.87012
2023-05-06T04:29:42.839Z,16.25586
2023-05-06T04:30:12.841Z,15.85645
2023-05-06T04:30:42.833Z,15.19629
2023-05-06T04:31:12.865Z,14.60254
2023-05-06T04:31:42.863Z,14.27539
2023-05-06T04:32:12.840Z,15.06836
2023-05-06T04:32:42.887Z,14.47363
2023-05-06T04:33:12.959Z,15.13281
2023-05-06T04:33:42.836Z,14.86426
2023-05-06T04:34:12.842Z,14.43945
2023-05-06T04:34:42.843Z,13.90332
2023-05-06T04:35:12.836Z,13.73242
2023-05-06T04:35:42.840Z,13.24023
2023-05-06T04:36:12.864Z,13.03027
2023-05-06T04:36:42.836Z,13.39746
2023-05-06T04:37:12.837Z,13.83008
2023-05-06T04:37:42.839Z,14.99707
2023-05-06T04:38:12.841Z,15.35938
2023-05-06T04:38:42.846Z,14.68359
2023-05-06T04:39:12.851Z,14.51367
2023-05-06T04:39:42.847Z,14.05176
2023-05-06T04:40:12.845Z,13.68457
2023-05-06T04:40:42.839Z,13.39355
2023-05-06T04:41:12.841Z,13.31738
2023-05-06T04:41:42.838Z,13.35645
2023-05-06T04:42:12.847Z,13.36133
2023-05-06T04:42:42.883Z,13.36621
2023-05-06T04:43:12.850Z,13.41504
2023-05-06T04:43:42.845Z,13.29492
2023-05-06T04:44:12.849Z,13.11133
2023-05-06T04:44:42.847Z,13.19238
2023-05-06T04:45:12.862Z,13.16992
2023-05-06T04:45:42.875Z,13.81543
2023-05-06T04:46:12.899Z,14.87598
2023-05-06T04:46:42.844Z,15.54492
2023-05-06T04:47:12.844Z,14.86719
2023-05-06T04:47:42.853Z,14.41309
2023-05-06T04:48:12.840Z,13.75879
2023-05-06T04:48:42.845Z,13.49219
2023-05-06T04:49:12.852Z,13.90723
2023-05-06T04:49:42.847Z,13.72656
2023-05-06T04:50:12.845Z,13.94922
2023-05-06T04:50:42.851Z,13.60059
2023-05-06T04:51:12.845Z,13.36719
2023-05-06T04:51:42.844Z,13.35059
2023-05-06T04:52:12.847Z,13.22266
2023-05-06T04:52:42.866Z,14.84473
2023-05-06T04:53:12.849Z,16.16699
2023-05-06T04:53:42.845Z,17.11914
2023-05-06T04:54:12.845Z,17.12305
2023-05-06T04:54:45.398Z,16.74512
2023-05-06T04:55:13.004Z,17.52637
2023-05-06T04:55:42.847Z,18.11914
2023-05-06T04:56:12.854Z,18.62305
2023-05-06T04:56:42.851Z,19.10352
2023-05-06T04:57:12.847Z,19.71973
2023-05-06T04:57:42.847Z,19.75391
2023-05-06T04:58:12.848Z,19.54785
2023-05-06T04:58:42.851Z,19.01074
2023-05-06T04:59:12.848Z,18.42676
2023-05-06T04:59:42.856Z,18.66602
2023-05-06T05:00:12.852Z,18.82422
2023-05-06T05:00:42.851Z,18.55762
2023-05-06T05:01:12.868Z,18.96484
2023-05-06T05:01:42.938Z,19.00977
2023-05-06T05:02:12.931Z,18.19238
2023-05-06T05:02:42.914Z,17.70703
2023-05-06T05:03:13.000Z,17.63672
2023-05-06T05:03:42.917Z,17.76758
2023-05-06T05:04:12.861Z,18.30859
2023-05-06T05:04:42.879Z,17.10938
2023-05-06T05:05:12.914Z,17.59766
2023-05-06T05:05:42.850Z,17.5752
2023-05-06T05:06:12.852Z,17.60938
2023-05-06T05:06:42.858Z,17.57324
2023-05-06T05:07:12.852Z,18.39453
2023-05-06T05:07:42.857Z,18.19824
2023-05-06T05:08:12.848Z,17.99414
2023-05-06T05:08:42.855Z,18.42871
2023-05-06T05:09:12.851Z,17.80859
2023-05-06T05:09:42.854Z,17.43066
2023-05-06T05:10:12.856Z,18.24121
2023-05-06T05:10:42.852Z,18.44922
2023-05-06T05:11:12.869Z,18.63672
2023-05-06T05:11:42.866Z,18.55273
2023-05-06T05:12:12.862Z,18.84277
2023-05-06T05:12:42.886Z,19.63086
2023-05-06T05:13:12.918Z,19.47852
2023-05-06T05:13:42.854Z,20.54883
2023-05-06T05:14:12.856Z,20.69336
2023-05-06T05:14:42.858Z,20.09375
2023-05-06T05:15:13.063Z,19.33398
2023-05-06T05:15:42.853Z,18.86133
2023-05-06T05:16:12.881Z,20.1875
2023-05-06T05:16:42.899Z,20.52832
2023-05-06T05:17:12.925Z,21.41211
2023-05-06T05:17:42.940Z,21.36523
2023-05-06T05:18:12.893Z,20.72363
2023-05-06T05:18:42.859Z,19.88477
2023-05-06T05:19:12.859Z,19.48633
2023-05-06T05:19:42.860Z,19.54785
2023-05-06T05:20:12.856Z,18.57324
2023-05-06T05:20:42.868Z,17.82129
2023-05-06T05:21:12.857Z,16.64453
2023-05-06T05:21:42.858Z,16.03613
2023-05-06T05:22:12.873Z,16.78418
2023-05-06T05:22:42.856Z,15.64355
2023-05-06T05:23:12.856Z,15.38086
2023-05-06T05:23:42.862Z,14.12695
2023-05-06T05:24:12.869Z,13.83594
2023-05-06T05:24:42.860Z,14.6582
2023-05-06T05:25:13.207Z,16.25781
2023-05-06T05:25:42.866Z,15.95605
2023-05-06T05:26:12.879Z,15.41309
2023-05-06T05:26:42.866Z,15.11816
2023-05-06T05:27:12.867Z,15.49316
2023-05-06T05:27:42.862Z,15.84277
2023-05-06T05:28:12.867Z,15.61621
2023-05-06T05:28:42.861Z,14.85938
2023-05-06T05:29:12.868Z,14.78711
2023-05-06T05:29:42.864Z,13.55762
2023-05-06T05:30:12.863Z,13.51758
2023-05-06T05:30:42.873Z,13.11035
2023-05-06T05:31:12.906Z,12.94629
2023-05-06T05:31:42.939Z,13.85742
2023-05-06T05:32:12.865Z,14.19629
2023-05-06T05:32:42.917Z,14.52832
2023-05-06T05:33:12.984Z,16.13379
2023-05-06T05:33:42.893Z,15.60254
2023-05-06T05:34:12.864Z,14.78223
2023-05-06T05:34:42.864Z,14.14746
2023-05-06T05:35:12.862Z,13.8877
2023-05-06T05:35:42.864Z,15.64648
2023-05-06T05:36:12.859Z,15.38379
2023-05-06T05:36:42.869Z,15.35547
2023-05-06T05:37:12.876Z,14.93262
2023-05-06T05:37:42.862Z,15.56934
2023-05-06T05:38:12.868Z,15.32031
2023-05-06T05:38:42.866Z,14.56445
2023-05-06T05:39:12.865Z,13.87305
2023-05-06T05:39:42.865Z,13.2793
2023-05-06T05:40:12.862Z,14.49121
2023-05-06T05:40:42.863Z,15.22461
2023-05-06T05:41:13.352Z,15.08496
2023-05-06T05:41:42.871Z,14.32031
2023-05-06T05:42:12.873Z,14.75391
2023-05-06T05:42:42.861Z,14.38477
2023-05-06T05:43:12.866Z,14.53027
2023-05-06T05:43:42.871Z,15.38867
2023-05-06T05:44:12.874Z,14.43164
2023-05-06T05:44:42.866Z,13.50488
2023-05-06T05:45:12.871Z,13.94238
2023-05-06T05:45:42.872Z,13.2207
2023-05-06T05:46:12.930Z,14.04492
2023-05-06T05:46:42.886Z,14.66895
2023-05-06T05:47:12.871Z,15.44727
2023-05-06T05:47:42.905Z,13.90039
2023-05-06T05:48:12.865Z,14.22168
2023-05-06T05:48:42.866Z,13.21484
2023-05-06T05:49:12.869Z,13.30664
2023-05-06T05:49:42.878Z,15.31152
2023-05-06T05:50:12.864Z,16.73145
2023-05-06T05:50:42.876Z,16.72754
2023-05-06T05:51:12.866Z,16.07617
2023-05-06T05:51:42.877Z,15.78125
2023-05-06T05:52:12.885Z,14.71094
2023-05-06T05:52:42.873Z,14.41211
2023-05-06T05:53:12.866Z,15.12891